createdAt,value
2022-09-06T00:01:32.829Z,101743.78
2022-09-06T00:03:59.447Z,101749.88
2022-09-06T00:06:25.920Z,101749.34
2022-09-06T00:08:52.265Z,101747.69
2022-09-06T00:11:18.926Z,101746.00
2022-09-06T00:13:45.411Z,101747.00
2022-09-06T00:16:16.633Z,101736.78
2022-09-06T00:18:43.457Z,101746.34
2022-09-06T00:21:17.859Z,101741.00
2022-09-06T00:23:44.309Z,101749.41
2022-09-06T00:26:10.654Z,101739.94
2022-09-06T00:28:37.097Z,101745.75
2022-09-06T00:31:15.441Z,101741.09
2022-09-06T00:33:42.297Z,101741.34
2022-09-06T00:36:09.206Z,101737.88
2022-09-06T00:38:35.625Z,101734.53
2022-09-06T00:41:02.064Z,101739.34
2022-09-06T00:43:28.654Z,101734.03
2022-09-06T00:45:55.711Z,101734.03
2022-09-06T00:48:22.991Z,101729.66
2022-09-06T00:50:51.925Z,101731.09
2022-09-06T00:53:18.888Z,101731.59
2022-09-06T00:55:45.578Z,101732.41
2022-09-06T00:58:12.297Z,101725.41
2022-09-06T01:00:38.652Z,101726.66
2022-09-06T01:03:06.047Z,101734.50
2022-09-06T01:05:42.338Z,101721.50
2022-09-06T01:08:15.260Z,101720.69
2022-09-06T01:10:55.297Z,101727.88
2022-09-06T01:13:21.638Z,101721.91
2022-09-06T01:16:00.239Z,101722.91
2022-09-06T01:18:26.697Z,101714.78
2022-09-06T01:21:02.176Z,101713.25
2022-09-06T01:23:40.492Z,101707.28
2022-09-06T01:26:16.096Z,101709.22
2022-09-06T01:28:49.183Z,101705.19
2022-09-06T01:31:38.677Z,101708.69
2022-09-06T01:34:08.077Z,101707.19
2022-09-06T01:36:45.807Z,101710.25
2022-09-06T01:39:23.906Z,101721.00
2022-09-06T01:41:50.585Z,101717.22
2022-09-06T01:44:16.925Z,101722.97
2022-09-06T01:46:49.138Z,101721.34
2022-09-06T01:49:33.567Z,101722.47
2022-09-06T01:52:08.201Z,101724.53
2022-09-06T01:54:34.628Z,101727.94
2022-09-06T01:57:12.910Z,101730.22
2022-09-06T01:59:50.671Z,101722.78
2022-09-06T02:02:26.236Z,101737.81
2022-09-06T02:05:24.757Z,101728.09
2022-09-06T02:07:55.849Z,101730.72
2022-09-06T02:10:38.386Z,101727.16
2022-09-06T02:13:06.596Z,101726.13
2022-09-06T02:15:33.831Z,101729.56
2022-09-06T02:18:06.182Z,101718.66
2022-09-06T02:20:35.292Z,101719.53
2022-09-06T02:23:03.967Z,101719.13
2022-09-06T02:25:41.990Z,101724.72
2022-09-06T02:28:09.193Z,101724.97
2022-09-06T02:30:38.739Z,101719.19
2022-09-06T02:33:09.619Z,101719.22
2022-09-06T02:35:42.940Z,101713.19
2022-09-06T02:38:09.369Z,101711.50
2022-09-06T02:40:36.091Z,101714.78
2022-09-06T02:43:02.475Z,101706.47
2022-09-06T02:45:28.824Z,101707.28
2022-09-06T02:47:55.308Z,101710.13
2022-09-06T02:50:21.831Z,101704.25
2022-09-06T02:53:00.527Z,101704.81
2022-09-06T02:55:26.862Z,101696.53
2022-09-06T02:57:53.201Z,101693.72
2022-09-06T03:00:19.580Z,101697.44
2022-09-06T03:02:46.026Z,101693.28
2022-09-06T03:05:12.478Z,101692.41
2022-09-06T03:07:38.891Z,101684.34
2022-09-06T03:10:05.479Z,101686.72
2022-09-06T03:12:31.875Z,101686.72
2022-09-06T03:14:58.232Z,101679.81
2022-09-06T03:17:24.663Z,101679.81
2022-09-06T03:19:51.076Z,101675.06
2022-09-06T03:22:17.587Z,101673.41
2022-09-06T03:24:43.945Z,101673.31
2022-09-06T03:27:10.370Z,101666.28
2022-09-06T03:29:36.834Z,101671.28
2022-09-06T03:32:03.295Z,101668.88
2022-09-06T03:34:29.638Z,101659.00
2022-09-06T03:36:56.028Z,101659.63
2022-09-06T03:39:22.367Z,101660.28
2022-09-06T03:41:48.799Z,101660.66
2022-09-06T03:44:15.193Z,101653.81
2022-09-06T03:46:41.595Z,101649.13
2022-09-06T03:49:10.179Z,101663.69
2022-09-06T03:51:36.524Z,101659.16
2022-09-06T03:54:02.931Z,101666.09
2022-09-06T03:56:29.348Z,101657.72
2022-09-06T03:58:55.721Z,101663.38
2022-09-06T04:01:22.213Z,101659.16
2022-09-06T04:03:48.591Z,101659.53
2022-09-06T04:06:14.990Z,101657.66
2022-09-06T04:08:41.323Z,101657.56
2022-09-06T04:11:07.909Z,101660.47
2022-09-06T04:13:35.103Z,101659.66
2022-09-06T04:16:01.885Z,101650.03
2022-09-06T04:18:28.637Z,101656.94
2022-09-06T04:20:56.241Z,101653.81
2022-09-06T04:23:23.487Z,101647.06
2022-09-06T04:25:50.928Z,101642.28
2022-09-06T04:28:18.466Z,101639.59
2022-09-06T04:31:03.272Z,101637.63
2022-09-06T04:33:31.504Z,101640.47
2022-09-06T04:35:59.144Z,101629.59
2022-09-06T04:38:26.763Z,101633.44
2022-09-06T04:40:55.417Z,101627.19
2022-09-06T04:43:22.538Z,101627.47
2022-09-06T04:45:48.947Z,101631.72
2022-09-06T04:48:15.676Z,101633.75
2022-09-06T04:50:42.031Z,101628.78
2022-09-06T04:53:08.752Z,101636.59
2022-09-06T04:55:35.205Z,101640.41
2022-09-06T04:58:01.546Z,101633.88
2022-09-06T05:00:28.635Z,101629.94
2022-09-06T05:02:55.006Z,101627.06
2022-09-06T05:05:22.469Z,101611.94
2022-09-06T05:07:51.920Z,101609.63
2022-09-06T05:10:18.294Z,101614.84
2022-09-06T05:12:47.486Z,101618.25
2022-09-06T05:15:13.954Z,101612.66
2022-09-06T05:17:40.347Z,101610.41
2022-09-06T05:20:06.989Z,101605.50
2022-09-06T05:22:33.352Z,101603.19
2022-09-06T05:24:59.757Z,101596.09
2022-09-06T05:27:26.133Z,101598.03
2022-09-06T05:29:52.508Z,101584.31
2022-09-06T05:32:18.908Z,101585.91
2022-09-06T05:34:45.238Z,101585.13
2022-09-06T05:37:11.605Z,101582.00
2022-09-06T05:39:38.047Z,101585.91
2022-09-06T05:42:07.184Z,101595.28
2022-09-06T05:44:34.070Z,101587.56
2022-09-06T05:47:01.130Z,101582.25
2022-09-06T05:49:30.944Z,101584.88
2022-09-06T05:51:57.690Z,101592.50
2022-09-06T05:54:24.185Z,101599.28
2022-09-06T05:56:50.810Z,101598.56
2022-09-06T05:59:27.685Z,101609.03
2022-09-06T06:01:54.451Z,101599.03
2022-09-06T06:04:20.952Z,101604.03
2022-09-06T06:06:47.335Z,101599.44
2022-09-06T06:09:14.046Z,101603.75
2022-09-06T06:11:41.209Z,101604.97
2022-09-06T06:14:08.047Z,101603.94
2022-09-06T06:16:34.657Z,101608.91
2022-09-06T06:19:01.215Z,101617.63
2022-09-06T06:21:28.881Z,101614.50
2022-09-06T06:23:56.652Z,101604.09
2022-09-06T06:26:23.522Z,101610.56
2022-09-06T06:28:50.404Z,101608.69
2022-09-06T06:31:17.278Z,101610.25
2022-09-06T06:33:44.361Z,101609.69
2022-09-06T06:36:13.605Z,101601.13
2022-09-06T06:38:41.098Z,101601.97
2022-09-06T06:41:09.101Z,101606.41
2022-09-06T06:43:38.431Z,101618.78
2022-09-06T06:46:12.434Z,101606.47
2022-09-06T06:48:43.401Z,101605.56
2022-09-06T06:51:13.798Z,101607.66
2022-09-06T06:53:40.257Z,101604.41
2022-09-06T06:56:25.468Z,101612.75
2022-09-06T06:58:53.287Z,101618.13
2022-09-06T07:01:20.817Z,101622.03
2022-09-06T07:03:47.462Z,101607.47
2022-09-06T07:06:14.483Z,101608.81
2022-09-06T07:08:41.563Z,101612.75
2022-09-06T07:11:09.927Z,101606.13
2022-09-06T07:13:36.424Z,101611.28
2022-09-06T07:16:09.606Z,101615.16
2022-09-06T07:18:37.776Z,101620.38
2022-09-06T07:24:06.756Z,101631.16
2022-09-06T07:26:34.239Z,101620.09
2022-09-06T07:29:01.806Z,101626.00
2022-09-06T07:34:16.001Z,101624.88
2022-09-06T07:36:42.387Z,101626.06
2022-09-06T07:39:08.756Z,101620.19
2022-09-06T07:41:35.179Z,101621.41
2022-09-06T07:44:01.675Z,101625.03
2022-09-06T07:46:28.108Z,101627.53
2022-09-06T07:48:54.511Z,101630.34
2022-09-06T07:51:21.544Z,101630.41
2022-09-06T07:53:58.035Z,101627.38
2022-09-06T07:56:28.867Z,101630.63
2022-09-06T07:58:55.928Z,101621.19
2022-09-06T08:01:30.288Z,101621.41
2022-09-06T08:04:01.011Z,101626.34
2022-09-06T08:06:28.397Z,101624.56
2022-09-06T08:11:28.226Z,101614.88
2022-09-06T08:13:55.580Z,101607.50
2022-09-06T08:16:24.964Z,101605.63
2022-09-06T08:18:58.576Z,101595.31
2022-09-06T08:21:27.461Z,101606.63
2022-09-06T08:23:55.459Z,101609.16
2022-09-06T08:26:22.905Z,101600.53
2022-09-06T08:28:53.185Z,101608.53
2022-09-06T08:31:19.717Z,101606.69
2022-09-06T08:33:47.629Z,101614.69
2022-09-06T08:36:14.178Z,101606.47
2022-09-06T08:38:40.740Z,101603.31
2022-09-06T08:41:25.921Z,101602.66
2022-09-06T08:46:40.816Z,101593.28
2022-09-06T08:49:07.378Z,101594.09
2022-09-06T08:51:51.165Z,101600.53
2022-09-06T08:54:17.568Z,101593.00
2022-09-06T08:56:56.096Z,101599.41
2022-09-06T08:59:22.526Z,101603.00
2022-09-06T09:01:58.077Z,101600.66
2022-09-06T09:04:27.061Z,101601.53
2022-09-06T09:06:58.024Z,101614.63
2022-09-06T09:09:27.280Z,101599.97
2022-09-06T09:14:19.987Z,101594.03
2022-09-06T09:16:50.305Z,101595.25
2022-09-06T09:19:16.825Z,101591.28
2022-09-06T09:21:43.296Z,101592.84
2022-09-06T09:24:10.841Z,101594.88
2022-09-06T09:26:55.902Z,101587.75
2022-09-06T09:29:27.415Z,101586.94
2022-09-06T09:31:55.950Z,101586.53
2022-09-06T09:34:33.658Z,101576.25
2022-09-06T09:40:27.513Z,101569.56
2022-09-06T09:42:55.151Z,101561.19
2022-09-06T09:45:24.558Z,101568.38
2022-09-06T09:47:51.044Z,101562.81
2022-09-06T09:50:26.424Z,101558.47
2022-09-06T09:52:52.843Z,101553.28
2022-09-06T09:55:22.874Z,101554.06
2022-09-06T09:57:50.820Z,101554.06
2022-09-06T10:00:43.430Z,101557.69
2022-09-06T10:03:14.201Z,101549.72
2022-09-06T10:05:41.602Z,101549.72
2022-09-06T10:08:12.515Z,101552.09
2022-09-06T10:10:38.876Z,101550.13
2022-09-06T10:13:12.543Z,101549.34
2022-09-06T10:15:40.855Z,101550.50
2022-09-06T10:18:14.996Z,101550.91
2022-09-06T10:20:49.778Z,101551.75
2022-09-06T10:26:12.062Z,101544.22
2022-09-06T10:28:41.796Z,101544.25
2022-09-06T10:31:13.896Z,101537.09
2022-09-06T10:33:58.451Z,101544.66
2022-09-06T10:36:48.178Z,101533.56
2022-09-06T10:39:17.575Z,101545.06
2022-09-06T10:41:47.047Z,101526.41
2022-09-06T10:44:13.500Z,101522.81
2022-09-06T10:46:41.623Z,101522.84
2022-09-06T10:49:11.454Z,101525.63
2022-09-06T10:51:41.201Z,101532.38
2022-09-06T10:54:10.561Z,101524.84
2022-09-06T10:56:41.662Z,101521.66
2022-09-06T11:02:22.370Z,101511.72
2022-09-06T11:07:38.217Z,101514.50
2022-09-06T11:10:04.727Z,101513.69
2022-09-06T11:12:42.430Z,101505.72
2022-09-06T11:15:10.519Z,101500.19
2022-09-06T11:17:58.304Z,101502.19
2022-09-06T11:20:32.431Z,101499.38
2022-09-06T11:23:01.809Z,101503.75
2022-09-06T11:25:47.588Z,101496.19
2022-09-06T11:28:16.959Z,101502.19
2022-09-06T11:30:45.743Z,101496.22
2022-09-06T11:33:24.236Z,101502.97
2022-09-06T11:35:50.823Z,101506.97
2022-09-06T11:38:17.183Z,101495.03
2022-09-06T11:40:45.837Z,101484.72
2022-09-06T11:43:17.236Z,101487.47
2022-09-06T11:45:43.660Z,101483.53
2022-09-06T11:48:26.369Z,101486.69
2022-09-06T11:50:58.810Z,101477.94
2022-09-06T11:53:26.470Z,101484.31
2022-09-06T11:56:01.964Z,101477.16
2022-09-06T11:58:40.235Z,101477.53
2022-09-06T12:01:13.041Z,101487.88
2022-09-06T12:04:09.121Z,101477.94
2022-09-06T12:06:43.870Z,101479.56
2022-09-06T12:09:30.075Z,101471.63
2022-09-06T12:11:57.367Z,101469.63
2022-09-06T12:14:29.339Z,101477.16
2022-09-06T12:16:55.670Z,101479.59
2022-09-06T12:19:44.126Z,101465.25
2022-09-06T12:22:32.001Z,101463.69
2022-09-06T12:25:01.723Z,101464.44
2022-09-06T12:27:28.068Z,101462.88
2022-09-06T12:29:58.391Z,101463.28
2022-09-06T12:32:32.632Z,101459.28
2022-09-06T12:37:54.438Z,101457.31
2022-09-06T12:40:21.563Z,101465.25
2022-09-06T12:42:48.698Z,101460.09
2022-09-06T12:45:15.534Z,101452.53
2022-09-06T12:47:41.903Z,101453.72
2022-09-06T12:50:17.758Z,101448.97
2022-09-06T12:52:48.858Z,101441.78
2022-09-06T12:55:17.198Z,101441.41
2022-09-06T12:57:51.351Z,101436.63
2022-09-06T13:00:19.010Z,101434.22
2022-09-06T13:02:52.944Z,101435.44
2022-09-06T13:05:19.471Z,101419.94
2022-09-06T13:07:51.119Z,101425.50
2022-09-06T13:10:19.362Z,101428.66
2022-09-06T13:12:47.995Z,101423.50
2022-09-06T13:15:19.500Z,101414.38
2022-09-06T13:17:46.234Z,101415.56
2022-09-06T13:20:14.091Z,101408.81
2022-09-06T13:22:42.660Z,101405.22
2022-09-06T13:25:21.721Z,101407.22
2022-09-06T13:27:51.636Z,101409.59
2022-09-06T13:30:33.310Z,101407.19
2022-09-06T13:33:00.153Z,101405.22
2022-09-06T13:35:29.400Z,101399.66
2022-09-06T13:38:14.706Z,101406.81
2022-09-06T13:41:07.121Z,101406.00
2022-09-06T13:43:29.641Z,101404.00
2022-09-06T13:46:10.305Z,101393.72
2022-09-06T13:48:37.130Z,101395.66
2022-09-06T13:51:06.776Z,101388.09
2022-09-06T13:53:34.155Z,101389.31
2022-09-06T13:56:00.562Z,101380.16
2022-09-06T13:58:27.778Z,101388.91
2022-09-06T14:00:54.204Z,101384.97
2022-09-06T14:03:22.535Z,101386.13
2022-09-06T14:05:48.958Z,101388.94
2022-09-06T14:08:15.787Z,101384.56
2022-09-06T14:10:42.459Z,101385.72
2022-09-06T14:13:10.110Z,101387.75
2022-09-06T14:15:36.646Z,101383.75
2022-09-06T14:18:03.313Z,101391.31
2022-09-06T14:20:29.693Z,101380.16
2022-09-06T14:22:56.124Z,101396.47
2022-09-06T14:25:22.671Z,101392.50
2022-09-06T14:27:49.142Z,101401.63
2022-09-06T14:30:15.574Z,101392.88
2022-09-06T14:32:42.070Z,101386.13
2022-09-06T14:35:08.625Z,101384.94
2022-09-06T14:37:35.097Z,101385.75
2022-09-06T14:40:01.939Z,101380.16
2022-09-06T14:42:28.415Z,101376.59
2022-09-06T14:44:54.810Z,101374.59
2022-09-06T14:47:21.405Z,101372.22
2022-09-06T14:49:47.808Z,101362.25
2022-09-06T14:52:14.338Z,101362.66
2022-09-06T14:54:40.854Z,101362.25
2022-09-06T14:57:07.243Z,101368.22
2022-09-06T14:59:33.969Z,101374.59
2022-09-06T15:02:00.402Z,101373.41
2022-09-06T15:04:27.528Z,101368.22
2022-09-06T15:06:54.377Z,101372.63
2022-09-06T15:09:20.996Z,101364.28
2022-09-06T15:11:48.938Z,101363.47
2022-09-06T15:14:20.253Z,101366.25
2022-09-06T15:16:49.885Z,101369.03
2022-09-06T15:19:19.847Z,101368.66
2022-09-06T15:21:46.863Z,101365.88
2022-09-06T15:24:13.886Z,101358.72
2022-09-06T15:26:42.535Z,101356.28
2022-09-06T15:29:09.803Z,101351.53
2022-09-06T15:31:37.018Z,101350.34
2022-09-06T15:34:03.439Z,101347.97
2022-09-06T15:36:30.199Z,101337.25
2022-09-06T15:38:59.690Z,101347.56
2022-09-06T15:41:27.072Z,101351.53
2022-09-06T15:43:54.969Z,101339.63
2022-09-06T15:46:40.004Z,101330.88
2022-09-06T15:49:07.171Z,101320.53
2022-09-06T15:51:35.151Z,101326.53
2022-09-06T15:54:01.776Z,101332.47
2022-09-06T15:56:28.212Z,101324.13
2022-09-06T15:58:54.626Z,101320.16
2022-09-06T16:01:22.609Z,101321.34
2022-09-06T16:03:50.362Z,101324.13
2022-09-06T16:06:26.834Z,101317.75
2022-09-06T16:09:01.246Z,101309.03
2022-09-06T16:11:28.629Z,101319.38
2022-09-06T16:13:55.504Z,101307.03
2022-09-06T16:16:22.766Z,101313.41
2022-09-06T16:18:49.511Z,101307.84
2022-09-06T16:21:18.528Z,101307.03
2022-09-06T16:23:52.190Z,101305.44
2022-09-06T16:26:21.538Z,101303.84
2022-09-06T16:28:49.557Z,101300.69
2022-09-06T16:31:16.106Z,101300.69
2022-09-06T16:33:45.138Z,101303.06
2022-09-06T16:36:12.048Z,101285.97
2022-09-06T16:38:39.066Z,101293.94
2022-09-06T16:41:09.888Z,101285.19
2022-09-06T16:43:36.496Z,101292.34
2022-09-06T16:46:04.298Z,101295.13
2022-09-06T16:48:30.987Z,101292.34
2022-09-06T16:50:57.375Z,101288.00
2022-09-06T16:53:24.182Z,101287.19
2022-09-06T16:55:51.105Z,101280.84
2022-09-06T16:58:17.551Z,101281.66
2022-09-06T17:00:44.957Z,101282.44
2022-09-06T17:03:13.345Z,101283.63
2022-09-06T17:05:39.747Z,101276.88
2022-09-06T17:08:06.187Z,101274.91
2022-09-06T17:10:32.569Z,101274.09
2022-09-06T17:12:59.010Z,101276.47
2022-09-06T17:15:25.402Z,101278.06
2022-09-06T17:17:51.777Z,101282.06
2022-09-06T17:20:20.528Z,101279.66
2022-09-06T17:22:50.203Z,101275.25
2022-09-06T17:25:16.708Z,101271.28
2022-09-06T17:27:43.061Z,101274.03
2022-09-06T17:30:09.757Z,101272.06
2022-09-06T17:32:36.555Z,101271.66
2022-09-06T17:35:03.954Z,101278.00
2022-09-06T17:37:32.697Z,101276.78
2022-09-06T17:39:59.270Z,101274.41
2022-09-06T17:42:25.718Z,101271.63
2022-09-06T17:44:52.131Z,101282.31
2022-09-06T17:47:18.577Z,101289.84
2022-09-06T17:49:44.960Z,101292.56
2022-09-06T17:52:11.576Z,101289.81
2022-09-06T17:54:38.065Z,101297.38
2022-09-06T17:57:04.482Z,101290.59
2022-09-06T17:59:35.100Z,101293.38
2022-09-06T18:02:02.304Z,101298.19
2022-09-06T18:04:28.774Z,101299.38
2022-09-06T18:06:55.278Z,101299.44
2022-09-06T18:09:21.728Z,101299.41
2022-09-06T18:11:48.276Z,101296.66
2022-09-06T18:14:16.699Z,101293.88
2022-09-06T18:16:45.344Z,101286.34
2022-09-06T18:19:12.298Z,101282.78
2022-09-06T18:21:40.433Z,101275.63
2022-09-06T18:24:07.850Z,101265.31
2022-09-06T18:26:34.665Z,101266.53
2022-09-06T18:29:01.378Z,101258.56
2022-09-06T18:31:28.306Z,101268.09
2022-09-06T18:33:57.961Z,101263.34
2022-09-06T18:36:27.538Z,101273.66
2022-09-06T18:38:56.662Z,101280.00
2022-09-06T18:41:41.589Z,101285.16
2022-09-06T18:44:08.869Z,101283.16
2022-09-06T18:46:36.216Z,101275.22
2022-09-06T18:49:02.732Z,101277.59
2022-09-06T18:51:29.532Z,101272.78
2022-09-06T18:53:56.892Z,101275.91
2022-09-06T18:56:23.725Z,101267.06
2022-09-06T18:58:51.812Z,101276.09
2022-09-06T19:01:19.517Z,101280.00
2022-09-06T19:03:46.082Z,101285.16
2022-09-06T19:06:14.207Z,101279.09
2022-09-06T19:08:40.997Z,101275.91
2022-09-06T19:11:13.021Z,101273.38
2022-09-06T19:13:40.217Z,101263.78
2022-09-06T19:16:07.351Z,101264.91
2022-09-06T19:18:34.397Z,101255.00
2022-09-06T19:21:05.987Z,101263.78
2022-09-06T19:23:33.829Z,101265.03
2022-09-06T19:26:05.083Z,101262.97
2022-09-06T19:28:31.695Z,101255.44
2022-09-06T19:30:58.421Z,101252.56
2022-09-06T19:33:25.612Z,101251.41
2022-09-06T19:36:10.313Z,101255.84
2022-09-06T19:39:01.566Z,101252.72
2022-09-06T19:41:24.853Z,101248.28
2022-09-06T19:43:54.798Z,101253.44
2022-09-06T19:46:23.848Z,101261.75
2022-09-06T19:48:51.482Z,101256.97
2022-09-06T19:51:18.604Z,101250.22
2022-09-06T19:53:49.611Z,101244.31
2022-09-06T19:56:17.125Z,101245.94
2022-09-06T19:58:43.884Z,101246.00
2022-09-06T20:01:11.020Z,101242.47
2022-09-06T20:03:38.497Z,101239.38
2022-09-06T20:06:07.441Z,101255.66
2022-09-06T20:08:37.485Z,101245.00
2022-09-06T20:11:05.420Z,101256.91
2022-09-06T20:13:32.172Z,101248.19
2022-09-06T20:15:58.609Z,101258.16
2022-09-06T20:18:26.001Z,101251.06
2022-09-06T20:20:53.695Z,101247.53
2022-09-06T20:23:20.244Z,101252.31
2022-09-06T20:25:47.868Z,101253.53
2022-09-06T20:28:15.168Z,101243.16
2022-09-06T20:30:44.883Z,101241.59
2022-09-06T20:33:11.410Z,101238.81
2022-09-06T20:35:38.059Z,101241.94
2022-09-06T20:38:04.679Z,101233.22
2022-09-06T20:40:31.151Z,101231.19
2022-09-06T20:42:57.718Z,101237.50
2022-09-06T20:45:25.291Z,101229.94
2022-09-06T20:47:52.239Z,101227.53
2022-09-06T20:50:18.727Z,101212.06
2022-09-06T20:52:45.114Z,101215.13
2022-09-06T20:55:11.557Z,101211.50
2022-09-06T20:57:38.475Z,101215.41
2022-09-06T21:00:05.113Z,101219.44
2022-09-06T21:02:31.552Z,101202.00
2022-09-06T21:04:59.969Z,101200.78
2022-09-06T21:07:27.110Z,101190.47
2022-09-06T21:09:53.620Z,101190.50
2022-09-06T21:12:19.980Z,101186.94
2022-09-06T21:14:46.441Z,101190.09
2022-09-06T21:17:14.498Z,101184.66
2022-09-06T21:19:40.956Z,101184.97
2022-09-06T21:22:07.338Z,101176.69
2022-09-06T21:24:33.954Z,101184.91
2022-09-06T21:27:00.341Z,101195.34
2022-09-06T21:29:26.717Z,101191.34
2022-09-06T21:31:53.291Z,101188.91
2022-09-06T21:34:19.725Z,101194.41
2022-09-06T21:36:46.175Z,101188.94
2022-09-06T21:39:13.002Z,101181.34
2022-09-06T21:41:40.672Z,101186.91
2022-09-06T21:44:07.857Z,101188.13
2022-09-06T21:46:36.028Z,101195.19
2022-09-06T21:49:04.471Z,101195.63
2022-09-06T21:51:31.481Z,101188.84
2022-09-06T21:53:57.960Z,101192.50
2022-09-06T21:56:24.455Z,101190.97
2022-09-06T21:58:51.984Z,101192.59
2022-09-06T22:01:19.102Z,101193.88
2022-09-06T22:03:46.268Z,101190.72
2022-09-06T22:06:14.129Z,101192.31
2022-09-06T22:08:43.768Z,101189.94
2022-09-06T22:11:19.989Z,101191.56
2022-09-06T22:13:47.010Z,101194.38
2022-09-06T22:16:14.820Z,101192.38
2022-09-06T22:18:41.273Z,101197.16
2022-09-06T22:21:09.108Z,101199.94
2022-09-06T22:23:35.675Z,101201.13
2022-09-06T22:26:03.954Z,101197.97
2022-09-06T22:28:30.529Z,101193.16
2022-09-06T22:30:57.111Z,101186.81
2022-09-06T22:33:23.550Z,101187.56
2022-09-06T22:35:50.350Z,101193.41
2022-09-06T22:38:17.062Z,101189.91
2022-09-06T22:40:43.696Z,101195.38
2022-09-06T22:43:10.076Z,101184.63
2022-09-06T22:45:36.483Z,101179.03
2022-09-06T22:48:03.059Z,101169.41
2022-09-06T22:50:30.061Z,101169.03
2022-09-06T22:52:56.766Z,101163.84
2022-09-06T22:55:24.081Z,101160.25
2022-09-06T22:57:50.452Z,101169.72
2022-09-06T23:00:17.092Z,101164.91
2022-09-06T23:02:43.454Z,101156.25
2022-09-06T23:05:09.873Z,101161.03
2022-09-06T23:07:36.608Z,101157.31
2022-09-06T23:10:03.206Z,101159.44
2022-09-06T23:12:29.606Z,101155.03
2022-09-06T23:14:55.975Z,101157.84
2022-09-06T23:17:22.383Z,101150.19
2022-09-06T23:19:48.744Z,101142.69
2022-09-06T23:22:15.187Z,101146.25
2022-09-06T23:24:41.844Z,101133.94
2022-09-06T23:27:08.198Z,101144.66
2022-09-06T23:29:35.021Z,101133.91
2022-09-06T23:32:01.408Z,101139.91
2022-09-06T23:34:28.045Z,101142.69
2022-09-06T23:36:59.882Z,101142.25
2022-09-06T23:39:27.165Z,101138.56
2022-09-06T23:41:53.973Z,101140.97
2022-09-06T23:44:20.487Z,101132.28
2022-09-06T23:46:46.966Z,101137.94
2022-09-06T23:49:13.406Z,101129.69
2022-09-06T23:51:39.918Z,101134.88
2022-09-06T23:54:06.571Z,101139.34
2022-09-06T23:56:33.246Z,101136.19
2022-09-06T23:58:59.654Z,101133.44
